createdAt,value
2017-09-26T09:11:39.768Z,21.8
2017-09-26T09:12:40.404Z,21.9
2017-09-26T09:13:41.039Z,21.9
2017-09-26T09:14:41.676Z,21.8
2017-09-26T09:15:42.414Z,21.9
2017-09-26T09:16:43.053Z,21.8
2017-09-26T09:17:43.694Z,21.9
2017-09-26T09:18:44.336Z,21.9
2017-09-26T09:19:44.974Z,21.9
2017-09-26T09:20:45.616Z,21.9
2017-09-26T09:21:46.259Z,21.9
2017-09-26T09:22:46.900Z,22.0
2017-09-26T09:23:47.543Z,21.9
2017-09-26T09:24:48.185Z,22.0
2017-09-26T09:25:48.978Z,22.0
2017-09-26T09:26:49.720Z,22.0
2017-09-26T09:27:50.811Z,22.0
2017-09-26T09:28:51.601Z,21.9
2017-09-26T09:29:52.243Z,22.0
2017-09-26T09:30:52.886Z,21.9
2017-09-26T09:31:53.627Z,22.0
2017-09-26T09:32:54.270Z,22.0
2017-09-26T09:33:54.913Z,22.0
2017-09-26T09:34:55.555Z,22.0
2017-09-26T09:35:56.198Z,22.0
2017-09-26T09:36:56.841Z,22.2
2017-09-26T09:37:57.482Z,22.2
2017-09-26T09:38:58.127Z,22.1
2017-09-26T09:39:58.966Z,22.1
2017-09-26T09:40:59.608Z,22.1
2017-09-26T09:42:00.250Z,22.1
2017-09-26T09:43:00.892Z,22.1
2017-09-26T09:44:01.535Z,22.1
2017-09-26T09:45:02.177Z,22.2
2017-09-26T09:46:02.819Z,22.2
2017-09-26T09:47:03.460Z,22.1
2017-09-26T09:48:04.203Z,22.1
2017-09-26T09:49:04.847Z,22.1
2017-09-26T09:50:05.491Z,22.1
2017-09-26T09:51:06.134Z,22.1
2017-09-26T09:52:06.778Z,22.1
2017-09-26T09:53:07.421Z,22.1
2017-09-26T09:54:08.065Z,22.2
2017-09-26T09:55:08.707Z,22.2
2017-09-26T09:56:09.350Z,22.2
2017-09-26T09:57:09.993Z,22.3
2017-09-26T09:58:10.737Z,22.2
2017-09-26T09:59:11.380Z,22.2
2017-09-26T10:00:12.021Z,22.3
2017-09-26T10:01:12.865Z,22.3
2017-09-26T10:02:13.506Z,22.3
2017-09-26T10:03:14.149Z,22.4
2017-09-26T10:04:14.791Z,22.3
2017-09-26T10:05:15.433Z,22.3
2017-09-26T10:06:16.076Z,22.4
2017-09-26T10:07:16.869Z,22.3
2017-09-26T10:08:17.711Z,22.3
2017-09-26T10:09:18.604Z,22.4
2017-09-26T10:10:19.248Z,22.3
2017-09-26T10:11:19.891Z,22.4
2017-09-26T10:12:20.536Z,22.4
2017-09-26T10:13:21.279Z,22.4
2017-09-26T10:14:21.925Z,22.4
2017-09-26T10:15:22.666Z,22.4
2017-09-26T10:16:23.310Z,22.4
2017-09-26T10:17:23.951Z,22.5
2017-09-26T10:18:24.595Z,22.4
2017-09-26T10:19:25.240Z,22.5
2017-09-26T10:20:25.887Z,22.4
2017-09-26T10:21:26.530Z,22.5
2017-09-26T10:22:27.172Z,22.5
2017-09-26T10:23:27.817Z,22.5
2017-09-26T10:24:28.458Z,22.5
2017-09-26T10:25:29.101Z,22.4
2017-09-26T10:26:29.843Z,22.5
2017-09-26T10:27:30.487Z,22.4
2017-09-26T10:28:31.231Z,22.5
2017-09-26T10:29:31.974Z,22.7
2017-09-26T10:30:32.617Z,22.6
2017-09-26T10:31:33.261Z,22.6
2017-09-26T10:32:34.154Z,22.5
2017-09-26T10:33:34.996Z,22.6
2017-09-26T10:34:35.640Z,22.6
2017-09-26T10:35:36.282Z,22.6
2017-09-26T10:36:37.176Z,22.6
2017-09-26T10:37:37.819Z,22.6
2017-09-26T10:38:38.561Z,22.6
2017-09-26T10:39:39.209Z,22.6
2017-09-26T10:40:39.853Z,22.6
2017-09-26T10:41:40.494Z,22.7
2017-09-26T10:42:41.137Z,22.7
2017-09-26T10:43:41.781Z,22.7
2017-09-26T10:44:42.426Z,22.6
2017-09-26T10:45:43.068Z,22.7
2017-09-26T10:46:43.711Z,22.6
2017-09-26T10:47:44.355Z,22.7
2017-09-26T10:48:45.099Z,22.7
2017-09-26T10:49:45.742Z,22.7
2017-09-26T10:50:46.385Z,22.7
2017-09-26T10:51:47.027Z,22.7
2017-09-26T10:52:47.672Z,22.7
2017-09-26T10:53:48.313Z,22.7
2017-09-26T10:54:48.957Z,22.6
2017-09-26T10:55:49.698Z,22.7
2017-09-26T10:56:50.343Z,22.7
2017-09-26T10:57:50.987Z,22.7
2017-09-26T10:58:51.731Z,22.6
2017-09-26T10:59:52.373Z,22.7
2017-09-26T11:00:53.265Z,22.7
2017-09-26T11:01:53.909Z,22.8
2017-09-26T11:02:54.553Z,22.7
2017-09-26T11:03:55.197Z,22.8
2017-09-26T11:04:55.841Z,22.8
2017-09-26T11:05:56.938Z,22.8
2017-09-26T11:06:57.682Z,22.9
2017-09-26T11:07:58.424Z,22.9
2017-09-26T11:08:59.217Z,22.8
2017-09-26T11:09:59.960Z,22.8
2017-09-26T11:11:00.603Z,22.9
2017-09-26T11:12:01.348Z,22.9
2017-09-26T11:13:01.993Z,22.8
2017-09-26T11:14:02.737Z,22.8
2017-09-26T11:15:03.532Z,22.9
2017-09-26T11:16:04.275Z,22.8
2017-09-26T11:17:05.171Z,22.9
2017-09-26T11:18:05.816Z,22.9
2017-09-26T11:19:06.459Z,22.9
2017-09-26T11:20:07.203Z,22.9
2017-09-26T11:21:07.997Z,23.0
2017-09-26T11:22:08.639Z,22.9
2017-09-26T11:23:09.284Z,23.0
2017-09-26T11:24:09.927Z,23.0
2017-09-26T11:25:10.570Z,23.1
2017-09-26T11:26:11.366Z,23.1
2017-09-26T11:27:12.010Z,23.0
2017-09-26T11:28:13.155Z,23.1
2017-09-26T11:29:13.800Z,23.1
2017-09-26T11:30:14.446Z,23.1
2017-09-26T11:31:15.091Z,23.2
2017-09-26T11:32:15.772Z,23.2
2017-09-26T11:33:16.420Z,23.2
2017-09-26T11:34:17.060Z,23.2
2017-09-26T11:35:17.703Z,23.2
2017-09-26T11:36:18.350Z,23.1
2017-09-26T11:37:18.999Z,23.2
2017-09-26T11:38:19.643Z,23.1
2017-09-26T11:39:20.289Z,23.1
2017-09-26T11:40:20.934Z,23.2
2017-09-26T11:41:21.580Z,23.2
2017-09-26T11:42:22.375Z,23.2
2017-09-26T11:43:23.019Z,23.2
2017-09-26T11:44:23.668Z,23.1
2017-09-26T11:45:24.311Z,23.1
2017-09-26T11:46:24.957Z,23.2
2017-09-26T11:47:25.602Z,23.1
2017-09-26T11:48:26.248Z,23.1
2017-09-26T11:49:26.891Z,23.1
2017-09-26T11:50:27.537Z,23.1
2017-09-26T11:51:28.182Z,23.1
2017-09-26T11:52:28.830Z,23.2
2017-09-26T11:53:29.473Z,23.2
2017-09-26T11:54:30.117Z,23.1
2017-09-26T11:55:30.762Z,23.1
2017-09-26T11:56:31.408Z,23.1
2017-09-26T11:57:32.051Z,23.1
2017-09-26T11:58:32.948Z,23.1
2017-09-26T11:59:33.592Z,23.1
2017-09-26T12:00:34.238Z,23.2
2017-09-26T12:01:34.884Z,23.2
2017-09-26T12:02:35.680Z,23.2
2017-09-26T12:03:36.326Z,23.1
2017-09-26T12:04:37.622Z,23.2
2017-09-26T12:05:38.266Z,23.3
2017-09-26T12:06:39.011Z,23.3
2017-09-26T12:07:39.906Z,23.3
2017-09-26T12:08:40.904Z,23.2
2017-09-26T12:09:41.546Z,23.3
2017-09-26T12:10:42.190Z,23.3
2017-09-26T12:11:42.834Z,23.3
2017-09-26T12:12:43.480Z,23.3
2017-09-26T12:13:44.223Z,23.2
2017-09-26T12:14:45.271Z,23.3
2017-09-26T12:15:45.914Z,23.3
2017-09-26T12:16:46.562Z,23.2
2017-09-26T12:17:47.209Z,23.3
2017-09-26T12:18:47.854Z,23.3
2017-09-26T12:19:48.499Z,23.4
2017-09-26T12:20:49.295Z,23.4
2017-09-26T12:21:50.041Z,23.4
2017-09-26T12:22:50.687Z,23.3
2017-09-26T12:23:51.334Z,23.4
2017-09-26T12:24:51.980Z,23.3
2017-09-26T12:25:52.824Z,23.4
2017-09-26T12:26:53.468Z,23.4
2017-09-26T12:27:54.117Z,23.4
2017-09-26T12:28:54.856Z,23.3
2017-09-26T12:29:55.501Z,23.3
2017-09-26T12:30:56.248Z,23.3
2017-09-26T12:31:56.894Z,23.2
2017-09-26T12:32:57.540Z,23.2
2017-09-26T12:33:58.185Z,23.3
2017-09-26T12:34:58.830Z,23.2
2017-09-26T12:35:59.476Z,23.3
2017-09-26T12:37:00.121Z,23.3
2017-09-26T12:38:00.768Z,23.3
2017-09-26T12:39:01.443Z,23.3
2017-09-26T12:40:02.067Z,23.3
2017-09-26T12:41:02.711Z,23.3
2017-09-26T12:42:03.355Z,23.3
2017-09-26T12:43:04.004Z,23.2
2017-09-26T12:44:04.656Z,23.3
2017-09-26T12:45:05.303Z,23.3
2017-09-26T12:46:05.947Z,23.3
2017-09-26T12:47:06.592Z,23.2
2017-09-26T12:48:07.238Z,23.2
2017-09-26T12:49:07.883Z,23.3
2017-09-26T12:50:08.527Z,23.3
2017-09-26T12:51:09.275Z,23.3
2017-09-26T12:52:09.982Z,23.2
2017-09-26T12:53:10.626Z,23.3
2017-09-26T12:54:11.271Z,23.4
2017-09-26T12:55:12.016Z,23.4
2017-09-26T12:56:12.816Z,23.4
2017-09-26T12:57:13.454Z,23.3
2017-09-26T12:58:14.098Z,23.4
2017-09-26T12:59:14.892Z,23.4
2017-09-26T13:00:15.537Z,23.4
2017-09-26T13:01:16.188Z,23.5
2017-09-26T13:02:16.832Z,23.4
2017-09-26T13:03:17.576Z,23.5
2017-09-26T13:04:18.322Z,23.5
2017-09-26T13:05:19.118Z,23.5
2017-09-26T13:06:19.764Z,23.5
2017-09-26T13:07:20.511Z,23.4
2017-09-26T13:08:21.309Z,23.4
2017-09-26T13:09:22.053Z,23.4
2017-09-26T13:10:22.848Z,23.4
2017-09-26T13:11:23.493Z,23.4
2017-09-26T13:12:24.139Z,23.5
2017-09-26T13:13:24.787Z,23.4
2017-09-26T13:14:25.429Z,23.5
2017-09-26T13:15:26.173Z,23.6
2017-09-26T13:16:26.919Z,23.6
2017-09-26T13:17:27.565Z,23.5
2017-09-26T13:18:28.207Z,23.5
2017-09-26T13:19:28.853Z,23.4
2017-09-26T13:20:29.598Z,23.5
2017-09-26T13:21:30.344Z,23.5
2017-09-26T13:22:30.987Z,23.5
2017-09-26T13:23:31.732Z,23.5
2017-09-26T13:24:32.382Z,23.5
2017-09-26T13:25:33.028Z,23.5
2017-09-26T13:26:33.674Z,23.6
2017-09-26T13:27:34.318Z,23.6
2017-09-26T13:28:34.963Z,23.4
2017-09-26T13:29:35.608Z,23.6
2017-09-26T13:30:36.252Z,23.5
2017-09-26T13:31:36.898Z,23.5
2017-09-26T13:32:37.543Z,23.6
2017-09-26T13:33:38.190Z,23.5
2017-09-26T13:34:38.835Z,23.5
2017-09-26T13:35:39.481Z,23.5
2017-09-26T13:36:40.126Z,23.4
2017-09-26T13:37:40.771Z,23.5
2017-09-26T13:38:41.419Z,23.4
2017-09-26T13:39:42.067Z,23.5
2017-09-26T13:40:42.711Z,23.5
2017-09-26T13:41:43.357Z,23.4
2017-09-26T13:42:44.001Z,23.4
2017-09-26T13:43:44.646Z,23.4
2017-09-26T13:44:45.290Z,23.4
2017-09-26T13:45:46.035Z,23.5
2017-09-26T13:46:46.681Z,23.4
2017-09-26T13:47:47.326Z,23.5
2017-09-26T13:48:48.222Z,23.5
2017-09-26T13:49:48.867Z,23.5
2017-09-26T13:50:49.614Z,23.4
2017-09-26T13:51:50.258Z,23.5
2017-09-26T13:52:51.057Z,23.4
2017-09-26T13:53:51.797Z,23.5
2017-09-26T13:54:52.443Z,23.5
2017-09-26T13:55:53.094Z,23.4
2017-09-26T13:56:53.739Z,23.5
2017-09-26T13:57:54.384Z,23.5
2017-09-26T13:58:55.031Z,23.4
2017-09-26T13:59:56.274Z,23.4
2017-09-26T14:00:56.919Z,23.5
2017-09-26T14:01:57.662Z,23.4
2017-09-26T14:02:58.406Z,23.4
2017-09-26T14:03:59.051Z,23.5
2017-09-26T14:04:59.697Z,23.4
2017-09-26T14:06:00.343Z,23.4
2017-09-26T14:07:01.092Z,23.5
2017-09-26T14:08:01.734Z,23.6
2017-09-26T14:09:02.379Z,23.5
2017-09-26T14:10:03.026Z,23.6
2017-09-26T14:11:03.667Z,23.7
2017-09-26T14:12:04.310Z,23.7
2017-09-26T14:13:05.054Z,23.7
2017-09-26T14:14:05.701Z,23.6
2017-09-26T14:15:06.346Z,23.6
2017-09-26T14:16:07.142Z,23.7
2017-09-26T14:17:07.789Z,23.6
2017-09-26T14:18:08.433Z,23.7
2017-09-26T14:19:09.080Z,23.8
2017-09-26T14:20:09.825Z,23.8
2017-09-26T14:21:10.720Z,23.8
2017-09-26T14:22:11.363Z,23.7
2017-09-26T14:23:12.008Z,23.7
2017-09-26T14:24:12.653Z,23.7
2017-09-26T14:25:13.297Z,23.8
2017-09-26T14:26:13.942Z,23.6
2017-09-26T14:27:14.587Z,23.7
2017-09-26T14:28:15.482Z,23.7
2017-09-26T14:29:16.128Z,23.7
2017-09-26T14:30:16.772Z,23.7
2017-09-26T14:31:17.419Z,23.6
2017-09-26T14:32:18.063Z,23.6
2017-09-26T14:33:18.710Z,23.6
2017-09-26T14:34:19.355Z,23.7
2017-09-26T14:35:20.000Z,23.7
2017-09-26T14:36:20.644Z,23.7
2017-09-26T14:37:21.290Z,23.6
2017-09-26T14:38:21.935Z,23.6
2017-09-26T14:39:22.681Z,23.7
2017-09-26T14:40:23.326Z,23.7
2017-09-26T14:41:23.971Z,23.8
2017-09-26T14:42:24.617Z,23.8
2017-09-26T14:43:25.263Z,23.7
2017-09-26T14:44:25.909Z,23.6
2017-09-26T14:45:26.552Z,23.6
2017-09-26T14:46:27.198Z,23.6
2017-09-26T14:47:27.844Z,23.6
2017-09-26T14:48:28.489Z,23.6
2017-09-26T14:49:29.133Z,23.5
2017-09-26T14:50:29.778Z,23.6
2017-09-26T14:51:30.422Z,23.5
2017-09-26T14:52:31.071Z,23.5
2017-09-26T14:53:31.713Z,23.6
2017-09-26T14:54:32.509Z,23.6
2017-09-26T14:55:33.256Z,23.6
2017-09-26T14:56:33.902Z,23.6
2017-09-26T14:57:34.546Z,23.6
2017-09-26T14:58:35.193Z,23.6
2017-09-26T14:59:35.838Z,23.6
2017-09-26T15:00:36.485Z,23.5
2017-09-26T15:01:37.129Z,23.6
2017-09-26T15:02:37.776Z,23.6
2017-09-26T15:03:38.420Z,23.5
2017-09-26T15:04:39.316Z,23.5
2017-09-26T15:05:39.961Z,23.4
2017-09-26T15:06:40.606Z,23.4
2017-09-26T15:07:41.253Z,23.4
2017-09-26T15:08:41.899Z,23.4
2017-09-26T15:09:42.545Z,23.4
2017-09-26T15:10:43.212Z,23.5
2017-09-26T15:11:43.834Z,23.4
2017-09-26T15:12:44.481Z,23.4
2017-09-26T15:13:45.125Z,23.4
2017-09-26T15:14:46.273Z,23.4
2017-09-26T15:15:46.917Z,23.4
2017-09-26T15:16:47.561Z,23.4
2017-09-26T15:17:48.206Z,23.5
2017-09-26T15:18:48.850Z,23.4
2017-09-26T15:19:49.495Z,23.4
2017-09-26T15:20:50.138Z,23.4
2017-09-26T15:21:50.884Z,23.4
2017-09-26T15:22:51.530Z,23.5
2017-09-26T15:23:52.174Z,23.4
2017-09-26T15:24:52.820Z,23.5
2017-09-26T15:25:53.463Z,23.5
2017-09-26T15:26:54.110Z,23.5
2017-09-26T15:27:54.760Z,23.6
2017-09-26T15:28:55.405Z,23.6
2017-09-26T15:29:56.047Z,23.6
2017-09-26T15:30:56.693Z,23.6
2017-09-26T15:31:57.339Z,23.5
2017-09-26T15:32:57.982Z,23.5
2017-09-26T15:33:58.625Z,23.5
2017-09-26T15:34:59.271Z,23.4
2017-09-26T15:35:59.915Z,23.4
2017-09-26T15:37:00.660Z,23.5
2017-09-26T15:38:01.306Z,23.5
2017-09-26T15:39:01.952Z,23.5
2017-09-26T15:40:02.853Z,23.5
2017-09-26T15:41:03.503Z,23.5
2017-09-26T15:42:04.157Z,23.4
2017-09-26T15:43:04.791Z,23.4
2017-09-26T15:44:05.437Z,23.5
2017-09-26T15:45:06.330Z,23.5
2017-09-26T15:46:06.976Z,23.5
2017-09-26T15:47:07.621Z,23.4
2017-09-26T15:48:08.267Z,23.3
2017-09-26T15:49:09.313Z,23.4
2017-09-26T15:50:10.207Z,23.3
2017-09-26T15:51:10.951Z,23.4
2017-09-26T15:52:11.596Z,23.3
2017-09-26T15:53:12.596Z,23.4
2017-09-26T15:54:13.236Z,23.4
2017-09-26T15:55:13.880Z,23.4
2017-09-26T15:56:14.524Z,23.4
2017-09-26T15:57:15.169Z,23.4
2017-09-26T15:58:15.813Z,23.3
2017-09-26T15:59:16.458Z,23.2
2017-09-26T16:00:17.201Z,23.3
2017-09-26T16:01:18.095Z,23.3
2017-09-26T16:02:18.741Z,23.3
2017-09-26T16:03:19.636Z,23.3
2017-09-26T16:04:20.279Z,23.3
2017-09-26T16:05:20.923Z,23.3
2017-09-26T16:06:21.568Z,23.2
2017-09-26T16:07:22.412Z,23.3
2017-09-26T16:08:23.060Z,23.3
2017-09-26T16:09:23.708Z,23.2
2017-09-26T16:10:24.352Z,23.2
2017-09-26T16:11:24.998Z,23.2
2017-09-26T16:12:25.641Z,23.2
2017-09-26T16:13:26.487Z,23.2
2017-09-26T16:14:27.131Z,23.2
2017-09-26T16:15:27.873Z,23.2
2017-09-26T16:16:28.517Z,23.3
2017-09-26T16:17:29.163Z,23.2
2017-09-26T16:18:29.806Z,23.3
2017-09-26T16:19:30.452Z,23.2
2017-09-26T16:20:31.197Z,23.3
2017-09-26T16:21:32.190Z,23.2
2017-09-26T16:22:32.835Z,23.2
2017-09-26T16:23:33.478Z,23.2
2017-09-26T16:24:34.127Z,23.2
2017-09-26T16:25:34.770Z,23.2
2017-09-26T16:26:35.412Z,23.1
2017-09-26T16:27:36.056Z,23.2
2017-09-26T16:28:36.701Z,23.2
2017-09-26T16:29:37.344Z,23.2
2017-09-26T16:30:37.990Z,23.2
2017-09-26T16:31:38.633Z,23.2
